sensor_id;sensor_type;location;lat;lon;timestamp;temperature;humidity
38568;DHT22;24338;48.280;10.970;2022-12-05T00:03:46;1.10;99.90
38568;DHT22;24338;48.280;10.970;2022-12-05T00:06:13;1.10;99.90
38568;DHT22;24338;48.280;10.970;2022-12-05T00:08:41;1.10;99.90
38568;DHT22;24338;48.280;10.970;2022-12-05T00:11:13;1.10;99.90
38568;DHT22;24338;48.280;10.970;2022-12-05T00:13:41;1.10;99.90
38568;DHT22;24338;48.280;10.970;2022-12-05T00:16:09;1.10;99.90
38568;DHT22;24338;48.280;10.970;2022-12-05T00:18:36;1.20;99.90
38568;DHT22;24338;48.280;10.970;2022-12-05T00:21:04;1.10;99.90
38568;DHT22;24338;48.280;10.970;2022-12-05T00:23:32;1.20;99.90
38568;DHT22;24338;48.280;10.970;2022-12-05T00:26:03;1.20;99.90
38568;DHT22;24338;48.280;10.970;2022-12-05T00:28:32;1.20;99.90
38568;DHT22;24338;48.280;10.970;2022-12-05T00:31:13;1.10;99.90
38568;DHT22;24338;48.280;10.970;2022-12-05T00:33:42;1.10;99.90
38568;DHT22;24338;48.280;10.970;2022-12-05T00:36:22;1.10;99.90
38568;DHT22;24338;48.280;10.970;2022-12-05T00:38:50;1.10;99.90
38568;DHT22;24338;48.280;10.970;2022-12-05T00:41:23;1.10;99.90
38568;DHT22;24338;48.280;10.970;2022-12-05T00:43:51;1.10;99.90
38568;DHT22;24338;48.280;10.970;2022-12-05T00:46:23;1.10;99.90
38568;DHT22;24338;48.280;10.970;2022-12-05T00:48:54;1.10;99.90
38568;DHT22;24338;48.280;10.970;2022-12-05T00:51:24;1.10;99.90
38568;DHT22;24338;48.280;10.970;2022-12-05T00:53:56;1.10;99.90
38568;DHT22;24338;48.280;10.970;2022-12-05T00:56:24;1.10;99.90
38568;DHT22;24338;48.280;10.970;2022-12-05T00:58:53;1.20;99.90
38568;DHT22;24338;48.280;10.970;2022-12-05T01:03:52;1.20;99.90
38568;DHT22;24338;48.280;10.970;2022-12-05T01:06:19;1.20;99.90
38568;DHT22;24338;48.280;10.970;2022-12-05T01:08:46;1.20;99.90
38568;DHT22;24338;48.280;10.970;2022-12-05T01:11:16;1.20;99.90
38568;DHT22;24338;48.280;10.970;2022-12-05T01:13:44;1.20;99.90
38568;DHT22;24338;48.280;10.970;2022-12-05T01:16:32;1.20;99.90
38568;DHT22;24338;48.280;10.970;2022-12-05T01:19:01;1.20;99.90
38568;DHT22;24338;48.280;10.970;2022-12-05T01:21:28;1.20;99.90
38568;DHT22;24338;48.280;10.970;2022-12-05T01:23:55;1.10;99.90
38568;DHT22;24338;48.280;10.970;2022-12-05T01:26:23;1.10;99.90
38568;DHT22;24338;48.280;10.970;2022-12-05T01:28:51;1.20;99.90
38568;DHT22;24338;48.280;10.970;2022-12-05T01:33:49;1.20;99.90
38568;DHT22;24338;48.280;10.970;2022-12-05T01:36:17;1.20;99.90
38568;DHT22;24338;48.280;10.970;2022-12-05T01:38:44;1.20;99.90
38568;DHT22;24338;48.280;10.970;2022-12-05T01:41:15;1.20;99.90
38568;DHT22;24338;48.280;10.970;2022-12-05T01:46:37;1.20;99.90
38568;DHT22;24338;48.280;10.970;2022-12-05T01:49:10;1.30;99.90
38568;DHT22;24338;48.280;10.970;2022-12-05T01:51:40;1.20;99.90
38568;DHT22;24338;48.280;10.970;2022-12-05T01:54:09;1.20;99.90
38568;DHT22;24338;48.280;10.970;2022-12-05T01:56:39;1.20;99.90
38568;DHT22;24338;48.280;10.970;2022-12-05T01:59:07;1.30;99.90
38568;DHT22;24338;48.280;10.970;2022-12-05T02:01:34;1.20;99.90
38568;DHT22;24338;48.280;10.970;2022-12-05T02:04:02;1.20;99.90
38568;DHT22;24338;48.280;10.970;2022-12-05T02:06:29;1.20;99.90
38568;DHT22;24338;48.280;10.970;2022-12-05T02:08:56;1.20;99.90
38568;DHT22;24338;48.280;10.970;2022-12-05T02:11:26;1.30;99.90
38568;DHT22;24338;48.280;10.970;2022-12-05T02:15:05;1.20;99.90
38568;DHT22;24338;48.280;10.970;2022-12-05T02:31:03;1.20;99.90
38568;DHT22;24338;48.280;10.970;2022-12-05T02:36:30;1.20;99.90
38568;DHT22;24338;48.280;10.970;2022-12-05T02:39:17;1.20;99.90
38568;DHT22;24338;48.280;10.970;2022-12-05T02:42:08;1.20;99.90
38568;DHT22;24338;48.280;10.970;2022-12-05T02:44:51;1.20;99.90
38568;DHT22;24338;48.280;10.970;2022-12-05T02:47:22;1.20;99.90
38568;DHT22;24338;48.280;10.970;2022-12-05T02:49:51;1.20;99.90
38568;DHT22;24338;48.280;10.970;2022-12-05T02:52:20;1.20;99.90
38568;DHT22;24338;48.280;10.970;2022-12-05T02:54:50;1.20;99.90
38568;DHT22;24338;48.280;10.970;2022-12-05T02:57:20;1.20;99.90
38568;DHT22;24338;48.280;10.970;2022-12-05T02:59:47;1.10;99.90
38568;DHT22;24338;48.280;10.970;2022-12-05T03:02:29;1.10;99.90
38568;DHT22;24338;48.280;10.970;2022-12-05T03:05:13;1.10;99.90
38568;DHT22;24338;48.280;10.970;2022-12-05T03:07:43;1.10;99.90
38568;DHT22;24338;48.280;10.970;2022-12-05T03:10:13;1.10;99.90
38568;DHT22;24338;48.280;10.970;2022-12-05T03:12:46;1.10;99.90
38568;DHT22;24338;48.280;10.970;2022-12-05T03:15:22;1.10;99.90
38568;DHT22;24338;48.280;10.970;2022-12-05T03:17:56;1.10;99.90
38568;DHT22;24338;48.280;10.970;2022-12-05T03:20:28;1.10;99.90
38568;DHT22;24338;48.280;10.970;2022-12-05T03:23:02;1.10;99.90
38568;DHT22;24338;48.280;10.970;2022-12-05T03:28:36;1.20;99.90
38568;DHT22;24338;48.280;10.970;2022-12-05T03:31:11;1.20;99.90
38568;DHT22;24338;48.280;10.970;2022-12-05T03:33:44;1.20;99.90
38568;DHT22;24338;48.280;10.970;2022-12-05T03:38:52;1.20;99.90
38568;DHT22;24338;48.280;10.970;2022-12-05T03:41:35;1.20;99.90
38568;DHT22;24338;48.280;10.970;2022-12-05T03:44:11;1.20;99.90
38568;DHT22;24338;48.280;10.970;2022-12-05T03:46:46;1.20;99.90
38568;DHT22;24338;48.280;10.970;2022-12-05T03:49:28;1.20;99.90
38568;DHT22;24338;48.280;10.970;2022-12-05T03:54:51;1.30;99.90
38568;DHT22;24338;48.280;10.970;2022-12-05T03:57:37;1.30;99.90
38568;DHT22;24338;48.280;10.970;2022-12-05T04:00:17;1.30;99.90
38568;DHT22;24338;48.280;10.970;2022-12-05T04:02:54;1.30;99.90
38568;DHT22;24338;48.280;10.970;2022-12-05T04:05:51;1.40;99.90
38568;DHT22;24338;48.280;10.970;2022-12-05T04:08:23;1.40;99.90
38568;DHT22;24338;48.280;10.970;2022-12-05T04:10:55;1.40;99.90
38568;DHT22;24338;48.280;10.970;2022-12-05T04:13:40;1.40;99.90
38568;DHT22;24338;48.280;10.970;2022-12-05T04:16:19;1.40;99.90
38568;DHT22;24338;48.280;10.970;2022-12-05T04:21:54;1.50;99.90
38568;DHT22;24338;48.280;10.970;2022-12-05T04:24:27;1.50;99.90
38568;DHT22;24338;48.280;10.970;2022-12-05T04:27:27;1.50;99.90
38568;DHT22;24338;48.280;10.970;2022-12-05T04:30:04;1.50;99.90
38568;DHT22;24338;48.280;10.970;2022-12-05T04:35:28;1.60;99.90
38568;DHT22;24338;48.280;10.970;2022-12-05T04:38:12;1.60;99.90
38568;DHT22;24338;48.280;10.970;2022-12-05T04:40:58;1.60;99.90
38568;DHT22;24338;48.280;10.970;2022-12-05T04:43:28;1.60;99.90
38568;DHT22;24338;48.280;10.970;2022-12-05T04:45:57;1.70;99.90
38568;DHT22;24338;48.280;10.970;2022-12-05T04:48:26;1.60;99.90
38568;DHT22;24338;48.280;10.970;2022-12-05T04:50:55;1.60;99.90
38568;DHT22;24338;48.280;10.970;2022-12-05T04:53:25;1.60;99.90
38568;DHT22;24338;48.280;10.970;2022-12-05T04:55:56;1.70;99.90
38568;DHT22;24338;48.280;10.970;2022-12-05T04:58:25;1.70;99.90
38568;DHT22;24338;48.280;10.970;2022-12-05T05:03:55;1.70;99.90
38568;DHT22;24338;48.280;10.970;2022-12-05T05:06:23;1.70;99.90
38568;DHT22;24338;48.280;10.970;2022-12-05T05:08:54;1.70;99.90
38568;DHT22;24338;48.280;10.970;2022-12-05T05:11:27;1.80;99.90
38568;DHT22;24338;48.280;10.970;2022-12-05T05:13:54;1.80;99.90
38568;DHT22;24338;48.280;10.970;2022-12-05T05:16:27;1.80;99.90
38568;DHT22;24338;48.280;10.970;2022-12-05T05:18:54;1.80;99.90
38568;DHT22;24338;48.280;10.970;2022-12-05T05:21:26;1.80;99.90
38568;DHT22;24338;48.280;10.970;2022-12-05T05:23:53;1.80;99.90
38568;DHT22;24338;48.280;10.970;2022-12-05T05:26:21;1.80;99.90
38568;DHT22;24338;48.280;10.970;2022-12-05T05:28:48;1.80;99.90
38568;DHT22;24338;48.280;10.970;2022-12-05T05:31:16;1.80;99.90
38568;DHT22;24338;48.280;10.970;2022-12-05T05:33:47;1.80;99.90
38568;DHT22;24338;48.280;10.970;2022-12-05T05:36:15;1.80;99.90
38568;DHT22;24338;48.280;10.970;2022-12-05T05:38:45;1.80;99.90
38568;DHT22;24338;48.280;10.970;2022-12-05T05:41:14;1.80;99.90
38568;DHT22;24338;48.280;10.970;2022-12-05T05:43:42;1.80;99.90
38568;DHT22;24338;48.280;10.970;2022-12-05T05:46:09;1.90;99.90
38568;DHT22;24338;48.280;10.970;2022-12-05T05:48:36;1.90;99.90
38568;DHT22;24338;48.280;10.970;2022-12-05T05:51:06;1.90;99.90
38568;DHT22;24338;48.280;10.970;2022-12-05T05:53:33;1.90;99.90
38568;DHT22;24338;48.280;10.970;2022-12-05T05:56:09;1.90;99.90
38568;DHT22;24338;48.280;10.970;2022-12-05T05:58:36;1.90;99.90
38568;DHT22;24338;48.280;10.970;2022-12-05T06:01:09;1.90;99.90
38568;DHT22;24338;48.280;10.970;2022-12-05T06:03:36;1.90;99.90
38568;DHT22;24338;48.280;10.970;2022-12-05T06:06:06;1.90;99.90
38568;DHT22;24338;48.280;10.970;2022-12-05T06:08:35;1.90;99.90
38568;DHT22;24338;48.280;10.970;2022-12-05T06:11:14;1.90;99.90
38568;DHT22;24338;48.280;10.970;2022-12-05T06:13:51;1.90;99.90
38568;DHT22;24338;48.280;10.970;2022-12-05T06:16:18;1.90;99.90
38568;DHT22;24338;48.280;10.970;2022-12-05T06:18:46;2.00;99.90
38568;DHT22;24338;48.280;10.970;2022-12-05T06:21:14;2.00;99.90
38568;DHT22;24338;48.280;10.970;2022-12-05T06:23:42;2.00;99.90
38568;DHT22;24338;48.280;10.970;2022-12-05T06:26:12;2.00;99.90
38568;DHT22;24338;48.280;10.970;2022-12-05T06:28:39;2.00;99.90
38568;DHT22;24338;48.280;10.970;2022-12-05T06:31:12;2.00;99.90
38568;DHT22;24338;48.280;10.970;2022-12-05T06:33:39;2.00;99.90
38568;DHT22;24338;48.280;10.970;2022-12-05T06:36:12;2.00;99.90
38568;DHT22;24338;48.280;10.970;2022-12-05T06:38:39;2.00;99.90
38568;DHT22;24338;48.280;10.970;2022-12-05T06:41:14;2.00;99.90
38568;DHT22;24338;48.280;10.970;2022-12-05T06:43:42;2.00;99.90
38568;DHT22;24338;48.280;10.970;2022-12-05T06:46:11;2.00;99.90
38568;DHT22;24338;48.280;10.970;2022-12-05T06:48:38;2.00;99.90
38568;DHT22;24338;48.280;10.970;2022-12-05T06:51:08;2.00;99.90
38568;DHT22;24338;48.280;10.970;2022-12-05T06:53:36;2.00;99.90
38568;DHT22;24338;48.280;10.970;2022-12-05T06:56:05;2.00;99.90
38568;DHT22;24338;48.280;10.970;2022-12-05T06:58:37;2.00;99.90
38568;DHT22;24338;48.280;10.970;2022-12-05T07:01:04;2.00;99.90
38568;DHT22;24338;48.280;10.970;2022-12-05T07:03:49;2.00;99.90
38568;DHT22;24338;48.280;10.970;2022-12-05T07:06:16;2.00;99.90
38568;DHT22;24338;48.280;10.970;2022-12-05T07:08:43;2.00;99.90
38568;DHT22;24338;48.280;10.970;2022-12-05T07:11:10;2.00;99.90
38568;DHT22;24338;48.280;10.970;2022-12-05T07:13:37;2.00;99.90
38568;DHT22;24338;48.280;10.970;2022-12-05T07:16:06;2.00;99.90
38568;DHT22;24338;48.280;10.970;2022-12-05T07:18:35;2.00;99.90
38568;DHT22;24338;48.280;10.970;2022-12-05T07:21:07;2.00;99.90
38568;DHT22;24338;48.280;10.970;2022-12-05T07:23:40;2.00;99.90
38568;DHT22;24338;48.280;10.970;2022-12-05T07:26:09;2.00;99.90
38568;DHT22;24338;48.280;10.970;2022-12-05T07:28:37;2.10;99.90
38568;DHT22;24338;48.280;10.970;2022-12-05T07:31:09;2.10;99.90
38568;DHT22;24338;48.280;10.970;2022-12-05T07:33:37;2.10;99.90
38568;DHT22;24338;48.280;10.970;2022-12-05T07:36:12;2.10;99.90
38568;DHT22;24338;48.280;10.970;2022-12-05T07:38:40;2.20;99.90
38568;DHT22;24338;48.280;10.970;2022-12-05T07:41:09;2.20;99.90
38568;DHT22;24338;48.280;10.970;2022-12-05T07:43:39;2.30;99.90
38568;DHT22;24338;48.280;10.970;2022-12-05T07:46:08;2.30;99.90
38568;DHT22;24338;48.280;10.970;2022-12-05T07:48:37;2.40;99.90
38568;DHT22;24338;48.280;10.970;2022-12-05T07:51:06;2.40;99.90
38568;DHT22;24338;48.280;10.970;2022-12-05T07:53:34;2.40;99.90
38568;DHT22;24338;48.280;10.970;2022-12-05T07:56:03;2.50;99.90
38568;DHT22;24338;48.280;10.970;2022-12-05T07:58:31;2.50;99.90
38568;DHT22;24338;48.280;10.970;2022-12-05T08:01:11;2.50;99.90
38568;DHT22;24338;48.280;10.970;2022-12-05T08:03:38;2.60;99.90
38568;DHT22;24338;48.280;10.970;2022-12-05T08:06:08;2.60;99.90
38568;DHT22;24338;48.280;10.970;2022-12-05T08:08:35;2.60;99.90
38568;DHT22;24338;48.280;10.970;2022-12-05T08:11:08;2.70;99.90
38568;DHT22;24338;48.280;10.970;2022-12-05T08:13:36;2.70;99.90
38568;DHT22;24338;48.280;10.970;2022-12-05T08:16:04;2.70;99.90
38568;DHT22;24338;48.280;10.970;2022-12-05T08:18:32;2.70;99.90
38568;DHT22;24338;48.280;10.970;2022-12-05T08:21:03;2.80;99.90
38568;DHT22;24338;48.280;10.970;2022-12-05T08:23:31;2.80;99.90
38568;DHT22;24338;48.280;10.970;2022-12-05T08:26:10;2.80;99.90
38568;DHT22;24338;48.280;10.970;2022-12-05T08:28:38;2.90;99.90
38568;DHT22;24338;48.280;10.970;2022-12-05T08:31:13;3.00;99.90
38568;DHT22;24338;48.280;10.970;2022-12-05T08:33:42;3.00;99.90
38568;DHT22;24338;48.280;10.970;2022-12-05T08:36:10;3.10;99.90
38568;DHT22;24338;48.280;10.970;2022-12-05T08:38:38;3.10;99.90
38568;DHT22;24338;48.280;10.970;2022-12-05T08:41:14;3.10;99.90
38568;DHT22;24338;48.280;10.970;2022-12-05T08:43:41;3.20;99.90
38568;DHT22;24338;48.280;10.970;2022-12-05T08:46:09;3.20;99.90
38568;DHT22;24338;48.280;10.970;2022-12-05T08:48:37;3.20;99.90
38568;DHT22;24338;48.280;10.970;2022-12-05T08:51:08;3.20;99.90
38568;DHT22;24338;48.280;10.970;2022-12-05T08:53:36;3.30;99.90
38568;DHT22;24338;48.280;10.970;2022-12-05T08:56:10;3.30;99.90
38568;DHT22;24338;48.280;10.970;2022-12-05T08:58:37;3.30;99.90
38568;DHT22;24338;48.280;10.970;2022-12-05T09:01:05;3.40;99.90
38568;DHT22;24338;48.280;10.970;2022-12-05T09:03:32;3.40;99.90
38568;DHT22;24338;48.280;10.970;2022-12-05T09:06:14;3.40;99.90
38568;DHT22;24338;48.280;10.970;2022-12-05T09:08:42;3.50;99.90
38568;DHT22;24338;48.280;10.970;2022-12-05T09:11:15;3.60;99.90
38568;DHT22;24338;48.280;10.970;2022-12-05T09:13:43;3.60;99.90
38568;DHT22;24338;48.280;10.970;2022-12-05T09:16:12;3.70;99.90
38568;DHT22;24338;48.280;10.970;2022-12-05T09:18:41;3.70;99.90
38568;DHT22;24338;48.280;10.970;2022-12-05T09:21:22;3.80;99.90
38568;DHT22;24338;48.280;10.970;2022-12-05T09:23:50;3.80;99.90
38568;DHT22;24338;48.280;10.970;2022-12-05T09:26:20;3.80;99.90
38568;DHT22;24338;48.280;10.970;2022-12-05T09:28:47;3.80;99.90
38568;DHT22;24338;48.280;10.970;2022-12-05T09:31:16;3.80;99.90
38568;DHT22;24338;48.280;10.970;2022-12-05T09:33:44;3.80;99.90
38568;DHT22;24338;48.280;10.970;2022-12-05T09:36:13;3.70;99.90
38568;DHT22;24338;48.280;10.970;2022-12-05T09:38:40;3.70;99.90
38568;DHT22;24338;48.280;10.970;2022-12-05T09:47:31;3.70;99.90
38568;DHT22;24338;48.280;10.970;2022-12-05T09:58:45;3.70;99.90
38568;DHT22;24338;48.280;10.970;2022-12-05T10:10:21;3.80;99.90
38568;DHT22;24338;48.280;10.970;2022-12-05T10:15:54;3.80;99.90
38568;DHT22;24338;48.280;10.970;2022-12-05T10:18:28;3.90;99.90
38568;DHT22;24338;48.280;10.970;2022-12-05T10:21:21;3.90;99.90
38568;DHT22;24338;48.280;10.970;2022-12-05T10:23:59;4.00;99.90
38568;DHT22;24338;48.280;10.970;2022-12-05T10:26:33;4.00;99.90
38568;DHT22;24338;48.280;10.970;2022-12-05T10:29:06;4.10;99.90
38568;DHT22;24338;48.280;10.970;2022-12-05T10:31:36;4.10;99.90
38568;DHT22;24338;48.280;10.970;2022-12-05T10:34:30;4.20;99.90
38568;DHT22;24338;48.280;10.970;2022-12-05T10:37:18;4.20;99.90
38568;DHT22;24338;48.280;10.970;2022-12-05T10:39:47;4.30;99.90
38568;DHT22;24338;48.280;10.970;2022-12-05T10:42:16;4.30;99.90
38568;DHT22;24338;48.280;10.970;2022-12-05T10:44:45;4.30;99.90
38568;DHT22;24338;48.280;10.970;2022-12-05T10:47:11;4.30;99.90
38568;DHT22;24338;48.280;10.970;2022-12-05T10:49:39;4.40;99.90
38568;DHT22;24338;48.280;10.970;2022-12-05T10:52:06;4.30;99.90
38568;DHT22;24338;48.280;10.970;2022-12-05T10:54:38;4.40;99.90
38568;DHT22;24338;48.280;10.970;2022-12-05T10:57:28;4.40;99.90
38568;DHT22;24338;48.280;10.970;2022-12-05T10:59:56;4.40;99.90
38568;DHT22;24338;48.280;10.970;2022-12-05T11:02:29;4.40;99.90
38568;DHT22;24338;48.280;10.970;2022-12-05T11:04:57;4.50;99.90
38568;DHT22;24338;48.280;10.970;2022-12-05T11:09:58;4.40;99.90
38568;DHT22;24338;48.280;10.970;2022-12-05T11:20:04;4.50;99.90
38568;DHT22;24338;48.280;10.970;2022-12-05T11:22:54;4.50;99.90
38568;DHT22;24338;48.280;10.970;2022-12-05T11:27:51;4.50;99.90
38568;DHT22;24338;48.280;10.970;2022-12-05T11:30:22;4.40;99.90
38568;DHT22;24338;48.280;10.970;2022-12-05T11:32:49;4.40;99.90
38568;DHT22;24338;48.280;10.970;2022-12-05T11:35:26;4.40;99.90
38568;DHT22;24338;48.280;10.970;2022-12-05T11:38:04;4.40;99.90
38568;DHT22;24338;48.280;10.970;2022-12-05T11:49:02;4.40;99.90
38568;DHT22;24338;48.280;10.970;2022-12-05T11:51:39;4.40;99.90
38568;DHT22;24338;48.280;10.970;2022-12-05T12:05:21;4.40;99.90
38568;DHT22;24338;48.280;10.970;2022-12-05T12:11:05;4.40;99.90
38568;DHT22;24338;48.280;10.970;2022-12-05T12:17:06;4.40;99.90
38568;DHT22;24338;48.280;10.970;2022-12-05T12:22:55;4.40;99.90
38568;DHT22;24338;48.280;10.970;2022-12-05T12:28:33;4.40;99.90
38568;DHT22;24338;48.280;10.970;2022-12-05T12:31:26;4.40;99.90
38568;DHT22;24338;48.280;10.970;2022-12-05T12:39:43;4.40;99.90
38568;DHT22;24338;48.280;10.970;2022-12-05T12:42:20;4.40;99.90
38568;DHT22;24338;48.280;10.970;2022-12-05T12:50:44;4.40;99.90
38568;DHT22;24338;48.280;10.970;2022-12-05T12:53:43;4.40;99.90
38568;DHT22;24338;48.280;10.970;2022-12-05T13:01:50;4.30;99.90
38568;DHT22;24338;48.280;10.970;2022-12-05T13:07:17;4.20;99.90
38568;DHT22;24338;48.280;10.970;2022-12-05T13:09:52;4.20;99.90
38568;DHT22;24338;48.280;10.970;2022-12-05T13:12:24;4.10;99.90
38568;DHT22;24338;48.280;10.970;2022-12-05T13:14:57;4.10;99.90
38568;DHT22;24338;48.280;10.970;2022-12-05T13:17:28;4.10;99.90
38568;DHT22;24338;48.280;10.970;2022-12-05T13:19:58;4.10;99.90
38568;DHT22;24338;48.280;10.970;2022-12-05T13:22:27;4.10;99.90
38568;DHT22;24338;48.280;10.970;2022-12-05T13:24:55;4.10;99.90
38568;DHT22;24338;48.280;10.970;2022-12-05T13:27:25;4.10;99.90
38568;DHT22;24338;48.280;10.970;2022-12-05T13:29:59;4.10;99.90
38568;DHT22;24338;48.280;10.970;2022-12-05T13:32:31;4.10;99.90
38568;DHT22;24338;48.280;10.970;2022-12-05T13:37:45;4.10;99.90
38568;DHT22;24338;48.280;10.970;2022-12-05T13:40:36;4.10;99.90
38568;DHT22;24338;48.280;10.970;2022-12-05T13:43:27;4.00;99.90
38568;DHT22;24338;48.280;10.970;2022-12-05T13:48:30;4.00;99.90
38568;DHT22;24338;48.280;10.970;2022-12-05T13:51:33;4.00;99.90
38568;DHT22;24338;48.280;10.970;2022-12-05T13:54:18;4.00;99.90
38568;DHT22;24338;48.280;10.970;2022-12-05T14:07:50;3.90;99.90
38568;DHT22;24338;48.280;10.970;2022-12-05T14:12:59;3.80;99.90
38568;DHT22;24338;48.280;10.970;2022-12-05T14:15:37;3.80;99.90
38568;DHT22;24338;48.280;10.970;2022-12-05T14:18:39;3.80;99.90
38568;DHT22;24338;48.280;10.970;2022-12-05T14:21:50;3.80;99.90
38568;DHT22;24338;48.280;10.970;2022-12-05T14:24:50;3.80;99.90
38568;DHT22;24338;48.280;10.970;2022-12-05T14:27:53;3.80;99.90
38568;DHT22;24338;48.280;10.970;2022-12-05T14:30:27;3.80;99.90
38568;DHT22;24338;48.280;10.970;2022-12-05T14:32:59;3.80;99.90
38568;DHT22;24338;48.280;10.970;2022-12-05T14:35:30;3.80;99.90
38568;DHT22;24338;48.280;10.970;2022-12-05T14:38:04;3.80;99.90
38568;DHT22;24338;48.280;10.970;2022-12-05T14:40:40;3.80;99.90
38568;DHT22;24338;48.280;10.970;2022-12-05T14:43:19;3.80;99.90
38568;DHT22;24338;48.280;10.970;2022-12-05T14:48:37;3.80;99.90
38568;DHT22;24338;48.280;10.970;2022-12-05T14:54:18;3.70;99.90
38568;DHT22;24338;48.280;10.970;2022-12-05T14:56:49;3.80;99.90
38568;DHT22;24338;48.280;10.970;2022-12-05T14:59:24;3.70;99.90
38568;DHT22;24338;48.280;10.970;2022-12-05T15:01:57;3.80;99.90
38568;DHT22;24338;48.280;10.970;2022-12-05T15:04:37;3.70;99.90
38568;DHT22;24338;48.280;10.970;2022-12-05T15:07:09;3.70;99.90
38568;DHT22;24338;48.280;10.970;2022-12-05T15:15:03;3.70;99.90
38568;DHT22;24338;48.280;10.970;2022-12-05T15:17:56;3.70;99.90
38568;DHT22;24338;48.280;10.970;2022-12-05T15:20:36;3.70;99.90
38568;DHT22;24338;48.280;10.970;2022-12-05T15:34:38;3.60;99.90
38568;DHT22;24338;48.280;10.970;2022-12-05T15:37:28;3.60;99.90
38568;DHT22;24338;48.280;10.970;2022-12-05T15:40:00;3.60;99.90
38568;DHT22;24338;48.280;10.970;2022-12-05T15:42:28;3.60;99.90
38568;DHT22;24338;48.280;10.970;2022-12-05T15:47:44;3.60;99.90
38568;DHT22;24338;48.280;10.970;2022-12-05T15:52:44;3.60;99.90
38568;DHT22;24338;48.280;10.970;2022-12-05T15:55:14;3.50;99.90
38568;DHT22;24338;48.280;10.970;2022-12-05T15:57:47;3.50;99.90
38568;DHT22;24338;48.280;10.970;2022-12-05T16:05:29;3.50;99.90
38568;DHT22;24338;48.280;10.970;2022-12-05T16:07:57;3.50;99.90
38568;DHT22;24338;48.280;10.970;2022-12-05T16:10:25;3.50;99.90
38568;DHT22;24338;48.280;10.970;2022-12-05T16:13:01;3.50;99.90
38568;DHT22;24338;48.280;10.970;2022-12-05T16:15:29;3.50;99.90
38568;DHT22;24338;48.280;10.970;2022-12-05T16:17:57;3.50;99.90
38568;DHT22;24338;48.280;10.970;2022-12-05T16:20:36;3.50;99.90
38568;DHT22;24338;48.280;10.970;2022-12-05T16:23:26;3.50;99.90
38568;DHT22;24338;48.280;10.970;2022-12-05T16:26:18;3.50;99.90
38568;DHT22;24338;48.280;10.970;2022-12-05T16:28:59;3.50;99.90
38568;DHT22;24338;48.280;10.970;2022-12-05T16:31:27;3.40;99.90
38568;DHT22;24338;48.280;10.970;2022-12-05T16:34:06;3.50;99.90
38568;DHT22;24338;48.280;10.970;2022-12-05T16:36:34;3.40;99.90
38568;DHT22;24338;48.280;10.970;2022-12-05T16:39:06;3.40;99.90
38568;DHT22;24338;48.280;10.970;2022-12-05T16:41:35;3.40;99.90
38568;DHT22;24338;48.280;10.970;2022-12-05T16:44:03;3.40;99.90
38568;DHT22;24338;48.280;10.970;2022-12-05T16:46:41;3.40;99.90
38568;DHT22;24338;48.280;10.970;2022-12-05T16:54:34;3.30;99.90
38568;DHT22;24338;48.280;10.970;2022-12-05T16:57:02;3.30;99.90
38568;DHT22;24338;48.280;10.970;2022-12-05T16:59:33;3.30;99.90
38568;DHT22;24338;48.280;10.970;2022-12-05T17:02:03;3.20;99.90
38568;DHT22;24338;48.280;10.970;2022-12-05T17:04:30;3.20;99.90
38568;DHT22;24338;48.280;10.970;2022-12-05T17:06:57;3.30;99.90
38568;DHT22;24338;48.280;10.970;2022-12-05T17:09:24;3.20;99.90
38568;DHT22;24338;48.280;10.970;2022-12-05T17:11:53;3.20;99.90
38568;DHT22;24338;48.280;10.970;2022-12-05T17:14:22;3.20;99.90
38568;DHT22;24338;48.280;10.970;2022-12-05T17:16:49;3.10;99.90
38568;DHT22;24338;48.280;10.970;2022-12-05T17:19:16;3.10;99.90
38568;DHT22;24338;48.280;10.970;2022-12-05T17:21:43;3.10;99.90
38568;DHT22;24338;48.280;10.970;2022-12-05T17:24:17;3.10;99.90
38568;DHT22;24338;48.280;10.970;2022-12-05T17:26:45;3.10;99.90
38568;DHT22;24338;48.280;10.970;2022-12-05T17:29:12;3.10;99.90
38568;DHT22;24338;48.280;10.970;2022-12-05T17:31:39;3.10;99.90
38568;DHT22;24338;48.280;10.970;2022-12-05T17:34:13;3.10;99.90
38568;DHT22;24338;48.280;10.970;2022-12-05T17:36:42;3.10;99.90
38568;DHT22;24338;48.280;10.970;2022-12-05T17:39:09;3.00;99.90
38568;DHT22;24338;48.280;10.970;2022-12-05T17:41:36;3.00;99.90
38568;DHT22;24338;48.280;10.970;2022-12-05T17:44:04;3.00;99.90
38568;DHT22;24338;48.280;10.970;2022-12-05T17:46:31;3.00;99.90
38568;DHT22;24338;48.280;10.970;2022-12-05T17:48:58;3.00;99.90
38568;DHT22;24338;48.280;10.970;2022-12-05T17:51:25;2.90;99.90
38568;DHT22;24338;48.280;10.970;2022-12-05T17:53:52;2.90;99.90
38568;DHT22;24338;48.280;10.970;2022-12-05T17:56:20;2.90;99.90
38568;DHT22;24338;48.280;10.970;2022-12-05T17:58:47;2.90;99.90
38568;DHT22;24338;48.280;10.970;2022-12-05T18:01:17;2.80;99.90
38568;DHT22;24338;48.280;10.970;2022-12-05T18:03:45;2.80;99.90
38568;DHT22;24338;48.280;10.970;2022-12-05T18:06:13;2.80;99.90
38568;DHT22;24338;48.280;10.970;2022-12-05T18:08:41;2.70;99.90
38568;DHT22;24338;48.280;10.970;2022-12-05T18:11:11;2.70;99.90
38568;DHT22;24338;48.280;10.970;2022-12-05T18:13:38;2.70;99.90
38568;DHT22;24338;48.280;10.970;2022-12-05T18:16:05;2.60;99.90
38568;DHT22;24338;48.280;10.970;2022-12-05T18:18:32;2.70;99.90
38568;DHT22;24338;48.280;10.970;2022-12-05T18:21:07;2.60;99.90
38568;DHT22;24338;48.280;10.970;2022-12-05T18:23:35;2.60;99.90
38568;DHT22;24338;48.280;10.970;2022-12-05T18:26:03;2.60;99.90
38568;DHT22;24338;48.280;10.970;2022-12-05T18:28:32;2.50;99.90
38568;DHT22;24338;48.280;10.970;2022-12-05T18:33:35;2.50;99.90
38568;DHT22;24338;48.280;10.970;2022-12-05T18:36:14;2.40;99.90
38568;DHT22;24338;48.280;10.970;2022-12-05T18:38:42;2.40;99.90
38568;DHT22;24338;48.280;10.970;2022-12-05T18:41:09;2.40;99.90
38568;DHT22;24338;48.280;10.970;2022-12-05T18:43:36;2.40;99.90
38568;DHT22;24338;48.280;10.970;2022-12-05T18:46:04;2.40;99.90
38568;DHT22;24338;48.280;10.970;2022-12-05T18:48:32;2.30;99.90
38568;DHT22;24338;48.280;10.970;2022-12-05T18:51:17;2.30;99.90
38568;DHT22;24338;48.280;10.970;2022-12-05T18:53:46;2.30;99.90
38568;DHT22;24338;48.280;10.970;2022-12-05T18:56:21;2.30;99.90
38568;DHT22;24338;48.280;10.970;2022-12-05T19:01:21;2.30;99.90
38568;DHT22;24338;48.280;10.970;2022-12-05T19:03:48;2.30;99.90
38568;DHT22;24338;48.280;10.970;2022-12-05T19:06:19;2.30;99.90
38568;DHT22;24338;48.280;10.970;2022-12-05T19:08:46;2.30;99.90
38568;DHT22;24338;48.280;10.970;2022-12-05T19:11:15;2.30;99.90
38568;DHT22;24338;48.280;10.970;2022-12-05T19:13:42;2.30;99.90
38568;DHT22;24338;48.280;10.970;2022-12-05T19:16:11;2.30;99.90
38568;DHT22;24338;48.280;10.970;2022-12-05T19:18:45;2.30;99.90
38568;DHT22;24338;48.280;10.970;2022-12-05T19:21:12;2.30;99.90